sensor_id;sensor_type;location;lat;lon;timestamp;P1;durP1;ratioP1;P2;durP2;ratioP2
26391;SDS011;14572;43.120;1.178;2023-12-29T00:02:06;6.25;;;3.80;;
26391;SDS011;14572;43.120;1.178;2023-12-29T00:04:35;8.23;;;4.78;;
26391;SDS011;14572;43.120;1.178;2023-12-29T00:07:02;7.00;;;4.68;;
26391;SDS011;14572;43.120;1.178;2023-12-29T00:09:29;5.88;;;3.65;;
26391;SDS011;14572;43.120;1.178;2023-12-29T00:12:03;12.40;;;4.60;;
26391;SDS011;14572;43.120;1.178;2023-12-29T00:14:30;7.50;;;3.92;;
26391;SDS011;14572;43.120;1.178;2023-12-29T00:16:57;7.65;;;4.50;;
26391;SDS011;14572;43.120;1.178;2023-12-29T00:19:24;9.10;;;4.05;;
26391;SDS011;14572;43.120;1.178;2023-12-29T00:21:53;6.63;;;4.25;;
26391;SDS011;14572;43.120;1.178;2023-12-29T00:24:20;6.82;;;4.05;;
26391;SDS011;14572;43.120;1.178;2023-12-29T00:26:47;8.75;;;4.93;;
26391;SDS011;14572;43.120;1.178;2023-12-29T00:29:14;6.88;;;4.18;;
26391;SDS011;14572;43.120;1.178;2023-12-29T00:31:41;7.25;;;4.55;;
26391;SDS011;14572;43.120;1.178;2023-12-29T00:34:08;7.32;;;3.70;;
26391;SDS011;14572;43.120;1.178;2023-12-29T00:36:35;5.80;;;3.53;;
26391;SDS011;14572;43.120;1.178;2023-12-29T00:39:04;5.38;;;3.15;;
26391;SDS011;14572;43.120;1.178;2023-12-29T00:41:31;5.07;;;2.97;;
26391;SDS011;14572;43.120;1.178;2023-12-29T00:43:59;5.43;;;3.17;;
26391;SDS011;14572;43.120;1.178;2023-12-29T00:46:26;6.07;;;2.90;;
26391;SDS011;14572;43.120;1.178;2023-12-29T00:48:53;3.72;;;2.50;;
26391;SDS011;14572;43.120;1.178;2023-12-29T00:51:20;5.30;;;2.83;;
26391;SDS011;14572;43.120;1.178;2023-12-29T00:53:47;5.85;;;3.10;;
26391;SDS011;14572;43.120;1.178;2023-12-29T00:56:16;10.52;;;2.85;;
26391;SDS011;14572;43.120;1.178;2023-12-29T00:58:43;9.23;;;2.53;;
26391;SDS011;14572;43.120;1.178;2023-12-29T01:01:10;4.85;;;2.65;;
26391;SDS011;14572;43.120;1.178;2023-12-29T01:03:37;4.15;;;2.55;;
26391;SDS011;14572;43.120;1.178;2023-12-29T01:06:04;3.35;;;2.28;;
26391;SDS011;14572;43.120;1.178;2023-12-29T01:08:31;5.15;;;2.58;;
26391;SDS011;14572;43.120;1.178;2023-12-29T01:10:58;3.35;;;2.50;;
26391;SDS011;14572;43.120;1.178;2023-12-29T01:13:27;3.38;;;2.17;;
26391;SDS011;14572;43.120;1.178;2023-12-29T01:15:54;4.32;;;2.60;;
26391;SDS011;14572;43.120;1.178;2023-12-29T01:18:21;3.13;;;2.10;;
26391;SDS011;14572;43.120;1.178;2023-12-29T01:20:48;6.77;;;2.83;;
26391;SDS011;14572;43.120;1.178;2023-12-29T01:23:15;6.93;;;2.35;;
26391;SDS011;14572;43.120;1.178;2023-12-29T01:25:42;3.40;;;2.17;;
26391;SDS011;14572;43.120;1.178;2023-12-29T01:28:09;4.45;;;1.88;;
26391;SDS011;14572;43.120;1.178;2023-12-29T01:30:37;4.78;;;2.30;;
26391;SDS011;14572;43.120;1.178;2023-12-29T01:33:05;3.42;;;2.20;;
26391;SDS011;14572;43.120;1.178;2023-12-29T01:35:32;7.45;;;1.77;;
26391;SDS011;14572;43.120;1.178;2023-12-29T01:37:58;6.22;;;1.98;;
26391;SDS011;14572;43.120;1.178;2023-12-29T01:40:26;5.78;;;1.95;;
26391;SDS011;14572;43.120;1.178;2023-12-29T01:42:53;3.42;;;1.90;;
26391;SDS011;14572;43.120;1.178;2023-12-29T01:45:21;2.88;;;1.70;;
26391;SDS011;14572;43.120;1.178;2023-12-29T01:47:50;4.17;;;2.00;;
26391;SDS011;14572;43.120;1.178;2023-12-29T01:50:17;2.42;;;1.50;;
26391;SDS011;14572;43.120;1.178;2023-12-29T01:52:44;3.30;;;2.05;;
26391;SDS011;14572;43.120;1.178;2023-12-29T01:55:12;5.03;;;2.15;;
26391;SDS011;14572;43.120;1.178;2023-12-29T01:57:43;4.05;;;1.75;;
26391;SDS011;14572;43.120;1.178;2023-12-29T02:00:11;3.28;;;1.63;;
26391;SDS011;14572;43.120;1.178;2023-12-29T02:02:38;4.55;;;1.50;;
26391;SDS011;14572;43.120;1.178;2023-12-29T02:05:07;3.25;;;1.55;;
26391;SDS011;14572;43.120;1.178;2023-12-29T02:07:34;3.53;;;1.80;;
26391;SDS011;14572;43.120;1.178;2023-12-29T02:10:02;2.53;;;1.42;;
26391;SDS011;14572;43.120;1.178;2023-12-29T02:12:29;2.08;;;1.42;;
26391;SDS011;14572;43.120;1.178;2023-12-29T02:14:56;3.30;;;1.80;;
26391;SDS011;14572;43.120;1.178;2023-12-29T02:17:25;3.40;;;1.70;;
26391;SDS011;14572;43.120;1.178;2023-12-29T02:19:53;3.00;;;1.90;;
26391;SDS011;14572;43.120;1.178;2023-12-29T02:22:23;2.88;;;1.65;;
26391;SDS011;14572;43.120;1.178;2023-12-29T02:24:51;2.85;;;1.42;;
26391;SDS011;14572;43.120;1.178;2023-12-29T02:27:20;2.83;;;1.83;;
26391;SDS011;14572;43.120;1.178;2023-12-29T02:29:56;3.80;;;1.50;;
26391;SDS011;14572;43.120;1.178;2023-12-29T02:32:37;2.03;;;1.50;;
26391;SDS011;14572;43.120;1.178;2023-12-29T02:35:07;4.30;;;1.58;;
26391;SDS011;14572;43.120;1.178;2023-12-29T02:37:36;4.88;;;1.73;;
26391;SDS011;14572;43.120;1.178;2023-12-29T02:40:06;5.82;;;1.60;;
26391;SDS011;14572;43.120;1.178;2023-12-29T02:42:34;4.72;;;2.20;;
26391;SDS011;14572;43.120;1.178;2023-12-29T02:45:01;2.13;;;1.60;;
26391;SDS011;14572;43.120;1.178;2023-12-29T02:47:29;4.50;;;1.70;;
26391;SDS011;14572;43.120;1.178;2023-12-29T02:49:56;3.55;;;1.30;;
26391;SDS011;14572;43.120;1.178;2023-12-29T02:52:22;4.30;;;1.67;;
26391;SDS011;14572;43.120;1.178;2023-12-29T02:54:49;2.83;;;1.50;;
26391;SDS011;14572;43.120;1.178;2023-12-29T02:57:17;2.15;;;1.55;;
26391;SDS011;14572;43.120;1.178;2023-12-29T02:59:44;3.10;;;1.55;;
26391;SDS011;14572;43.120;1.178;2023-12-29T03:02:11;1.90;;;1.38;;
26391;SDS011;14572;43.120;1.178;2023-12-29T03:04:38;3.13;;;1.35;;
26391;SDS011;14572;43.120;1.178;2023-12-29T03:07:05;3.70;;;1.60;;
26391;SDS011;14572;43.120;1.178;2023-12-29T03:09:32;2.40;;;1.42;;
26391;SDS011;14572;43.120;1.178;2023-12-29T03:11:59;1.60;;;1.15;;
26391;SDS011;14572;43.120;1.178;2023-12-29T03:14:28;1.60;;;1.20;;
26391;SDS011;14572;43.120;1.178;2023-12-29T03:16:55;4.22;;;1.35;;
26391;SDS011;14572;43.120;1.178;2023-12-29T03:19:22;3.13;;;1.33;;
26391;SDS011;14572;43.120;1.178;2023-12-29T03:21:49;2.42;;;1.23;;
26391;SDS011;14572;43.120;1.178;2023-12-29T03:24:19;2.15;;;1.42;;
26391;SDS011;14572;43.120;1.178;2023-12-29T03:26:46;2.50;;;1.20;;
26391;SDS011;14572;43.120;1.178;2023-12-29T03:29:13;2.50;;;1.33;;
26391;SDS011;14572;43.120;1.178;2023-12-29T03:31:41;2.05;;;1.30;;
26391;SDS011;14572;43.120;1.178;2023-12-29T03:34:08;6.85;;;1.15;;
26391;SDS011;14572;43.120;1.178;2023-12-29T03:36:35;2.05;;;1.30;;
26391;SDS011;14572;43.120;1.178;2023-12-29T03:39:02;1.75;;;1.10;;
26391;SDS011;14572;43.120;1.178;2023-12-29T03:41:29;2.27;;;1.43;;
26391;SDS011;14572;43.120;1.178;2023-12-29T03:43:56;2.97;;;1.65;;
26391;SDS011;14572;43.120;1.178;2023-12-29T03:46:24;3.25;;;1.45;;
26391;SDS011;14572;43.120;1.178;2023-12-29T03:48:53;2.17;;;1.30;;
26391;SDS011;14572;43.120;1.178;2023-12-29T03:51:20;4.32;;;1.40;;
26391;SDS011;14572;43.120;1.178;2023-12-29T03:53:47;2.13;;;1.40;;
26391;SDS011;14572;43.120;1.178;2023-12-29T03:56:14;2.45;;;1.10;;
26391;SDS011;14572;43.120;1.178;2023-12-29T03:58:42;1.30;;;0.98;;
26391;SDS011;14572;43.120;1.178;2023-12-29T04:01:09;3.00;;;1.35;;
26391;SDS011;14572;43.120;1.178;2023-12-29T04:03:36;2.08;;;1.30;;
26391;SDS011;14572;43.120;1.178;2023-12-29T04:06:06;3.55;;;1.80;;
26391;SDS011;14572;43.120;1.178;2023-12-29T04:08:34;2.03;;;1.20;;
26391;SDS011;14572;43.120;1.178;2023-12-29T04:11:01;1.45;;;1.15;;
26391;SDS011;14572;43.120;1.178;2023-12-29T04:13:28;1.67;;;1.00;;
26391;SDS011;14572;43.120;1.178;2023-12-29T04:15:55;1.98;;;1.10;;
26391;SDS011;14572;43.120;1.178;2023-12-29T04:18:23;2.88;;;1.50;;
26391;SDS011;14572;43.120;1.178;2023-12-29T04:20:50;1.98;;;1.08;;
26391;SDS011;14572;43.120;1.178;2023-12-29T04:23:19;3.15;;;1.17;;
26391;SDS011;14572;43.120;1.178;2023-12-29T04:25:47;2.33;;;1.27;;
26391;SDS011;14572;43.120;1.178;2023-12-29T04:28:14;4.07;;;1.52;;
26391;SDS011;14572;43.120;1.178;2023-12-29T04:30:41;2.38;;;1.20;;
26391;SDS011;14572;43.120;1.178;2023-12-29T04:33:08;1.75;;;1.17;;
26391;SDS011;14572;43.120;1.178;2023-12-29T04:35:35;3.60;;;1.13;;
26391;SDS011;14572;43.120;1.178;2023-12-29T04:38:02;6.88;;;1.17;;
26391;SDS011;14572;43.120;1.178;2023-12-29T04:40:31;1.95;;;1.20;;
26391;SDS011;14572;43.120;1.178;2023-12-29T04:42:58;1.80;;;1.10;;
26391;SDS011;14572;43.120;1.178;2023-12-29T04:45:25;2.10;;;1.20;;
26391;SDS011;14572;43.120;1.178;2023-12-29T04:47:52;3.05;;;1.20;;
26391;SDS011;14572;43.120;1.178;2023-12-29T04:50:19;2.50;;;1.33;;
26391;SDS011;14572;43.120;1.178;2023-12-29T04:52:46;2.33;;;1.10;;
26391;SDS011;14572;43.120;1.178;2023-12-29T04:55:13;2.28;;;1.20;;
26391;SDS011;14572;43.120;1.178;2023-12-29T04:57:42;4.53;;;1.20;;
26391;SDS011;14572;43.120;1.178;2023-12-29T05:00:09;1.50;;;1.10;;
26391;SDS011;14572;43.120;1.178;2023-12-29T05:02:38;1.83;;;1.30;;
26391;SDS011;14572;43.120;1.178;2023-12-29T05:05:05;2.13;;;1.35;;
26391;SDS011;14572;43.120;1.178;2023-12-29T05:07:32;1.38;;;0.90;;
26391;SDS011;14572;43.120;1.178;2023-12-29T05:09:59;3.00;;;1.15;;
26391;SDS011;14572;43.120;1.178;2023-12-29T05:12:26;1.52;;;0.90;;
26391;SDS011;14572;43.120;1.178;2023-12-29T05:14:54;1.38;;;0.90;;
26391;SDS011;14572;43.120;1.178;2023-12-29T05:17:21;1.52;;;1.08;;
26391;SDS011;14572;43.120;1.178;2023-12-29T05:19:48;2.25;;;1.10;;
26391;SDS011;14572;43.120;1.178;2023-12-29T05:22:15;2.95;;;0.95;;
26391;SDS011;14572;43.120;1.178;2023-12-29T05:24:43;3.40;;;1.13;;
26391;SDS011;14572;43.120;1.178;2023-12-29T05:27:10;3.33;;;1.00;;
26391;SDS011;14572;43.120;1.178;2023-12-29T05:29:37;2.97;;;1.10;;
26391;SDS011;14572;43.120;1.178;2023-12-29T05:32:06;1.70;;;1.02;;
26391;SDS011;14572;43.120;1.178;2023-12-29T05:34:33;1.42;;;1.00;;
26391;SDS011;14572;43.120;1.178;2023-12-29T05:37:00;2.35;;;1.20;;
26391;SDS011;14572;43.120;1.178;2023-12-29T05:39:28;2.67;;;1.23;;
26391;SDS011;14572;43.120;1.178;2023-12-29T05:41:55;1.63;;;1.10;;
26391;SDS011;14572;43.120;1.178;2023-12-29T05:44:22;1.98;;;1.00;;
26391;SDS011;14572;43.120;1.178;2023-12-29T05:46:49;3.08;;;1.00;;
26391;SDS011;14572;43.120;1.178;2023-12-29T05:49:18;2.65;;;0.90;;
26391;SDS011;14572;43.120;1.178;2023-12-29T05:51:45;2.58;;;1.38;;
26391;SDS011;14572;43.120;1.178;2023-12-29T05:54:12;1.05;;;0.80;;
26391;SDS011;14572;43.120;1.178;2023-12-29T05:56:39;2.78;;;0.95;;
26391;SDS011;14572;43.120;1.178;2023-12-29T05:59:07;1.25;;;0.90;;
26391;SDS011;14572;43.120;1.178;2023-12-29T06:01:34;1.45;;;1.00;;
26391;SDS011;14572;43.120;1.178;2023-12-29T06:04:01;4.03;;;1.00;;
26391;SDS011;14572;43.120;1.178;2023-12-29T06:06:30;1.27;;;0.90;;
26391;SDS011;14572;43.120;1.178;2023-12-29T06:08:57;4.70;;;1.30;;
26391;SDS011;14572;43.120;1.178;2023-12-29T06:11:24;1.92;;;1.00;;
26391;SDS011;14572;43.120;1.178;2023-12-29T06:13:51;1.23;;;0.80;;
26391;SDS011;14572;43.120;1.178;2023-12-29T06:16:18;1.58;;;0.80;;
26391;SDS011;14572;43.120;1.178;2023-12-29T06:18:46;1.38;;;0.98;;
26391;SDS011;14572;43.120;1.178;2023-12-29T06:21:13;1.75;;;1.08;;
26391;SDS011;14572;43.120;1.178;2023-12-29T06:23:42;2.75;;;1.90;;
26391;SDS011;14572;43.120;1.178;2023-12-29T06:26:15;2.70;;;1.10;;
26391;SDS011;14572;43.120;1.178;2023-12-29T06:28:43;2.33;;;1.20;;
26391;SDS011;14572;43.120;1.178;2023-12-29T06:31:10;1.30;;;1.20;;
26391;SDS011;14572;43.120;1.178;2023-12-29T06:33:40;3.35;;;1.08;;
26391;SDS011;14572;43.120;1.178;2023-12-29T06:36:08;1.98;;;1.20;;
26391;SDS011;14572;43.120;1.178;2023-12-29T06:38:35;2.88;;;1.20;;
26391;SDS011;14572;43.120;1.178;2023-12-29T06:41:04;2.08;;;1.27;;
26391;SDS011;14572;43.120;1.178;2023-12-29T06:43:32;1.80;;;1.10;;
26391;SDS011;14572;43.120;1.178;2023-12-29T06:45:59;2.38;;;1.33;;
26391;SDS011;14572;43.120;1.178;2023-12-29T06:48:26;1.85;;;1.00;;
26391;SDS011;14572;43.120;1.178;2023-12-29T06:50:53;1.95;;;0.95;;
26391;SDS011;14572;43.120;1.178;2023-12-29T06:53:20;4.45;;;1.20;;
26391;SDS011;14572;43.120;1.178;2023-12-29T06:55:47;4.65;;;0.95;;
26391;SDS011;14572;43.120;1.178;2023-12-29T06:58:16;2.05;;;1.10;;
26391;SDS011;14572;43.120;1.178;2023-12-29T07:00:43;1.38;;;1.02;;
26391;SDS011;14572;43.120;1.178;2023-12-29T07:03:12;2.17;;;0.93;;
26391;SDS011;14572;43.120;1.178;2023-12-29T07:05:40;2.58;;;1.00;;
26391;SDS011;14572;43.120;1.178;2023-12-29T07:08:07;2.17;;;1.30;;
26391;SDS011;14572;43.120;1.178;2023-12-29T07:10:34;4.78;;;1.02;;
26391;SDS011;14572;43.120;1.178;2023-12-29T07:13:01;1.85;;;1.17;;
26391;SDS011;14572;43.120;1.178;2023-12-29T07:15:30;2.08;;;1.10;;
26391;SDS011;14572;43.120;1.178;2023-12-29T07:17:57;1.80;;;1.05;;
26391;SDS011;14572;43.120;1.178;2023-12-29T07:20:24;2.47;;;1.20;;
26391;SDS011;14572;43.120;1.178;2023-12-29T07:22:51;2.72;;;1.38;;
26391;SDS011;14572;43.120;1.178;2023-12-29T07:25:18;2.70;;;1.42;;
26391;SDS011;14572;43.120;1.178;2023-12-29T07:27:45;3.78;;;1.33;;
26391;SDS011;14572;43.120;1.178;2023-12-29T07:30:14;2.60;;;1.38;;
26391;SDS011;14572;43.120;1.178;2023-12-29T07:32:43;3.17;;;1.63;;
26391;SDS011;14572;43.120;1.178;2023-12-29T07:35:10;4.00;;;1.30;;
26391;SDS011;14572;43.120;1.178;2023-12-29T07:37:40;3.67;;;1.10;;
26391;SDS011;14572;43.120;1.178;2023-12-29T07:40:08;2.47;;;1.20;;
26391;SDS011;14572;43.120;1.178;2023-12-29T07:42:38;2.25;;;1.40;;
26391;SDS011;14572;43.120;1.178;2023-12-29T07:45:06;9.88;;;1.70;;
26391;SDS011;14572;43.120;1.178;2023-12-29T07:47:34;24.65;;;2.03;;
26391;SDS011;14572;43.120;1.178;2023-12-29T07:50:03;2.47;;;1.23;;
26391;SDS011;14572;43.120;1.178;2023-12-29T07:52:31;3.72;;;1.35;;
26391;SDS011;14572;43.120;1.178;2023-12-29T07:54:58;3.85;;;1.55;;
26391;SDS011;14572;43.120;1.178;2023-12-29T07:57:25;2.35;;;1.45;;
26391;SDS011;14572;43.120;1.178;2023-12-29T07:59:52;3.20;;;1.25;;
26391;SDS011;14572;43.120;1.178;2023-12-29T08:02:19;2.60;;;1.58;;
26391;SDS011;14572;43.120;1.178;2023-12-29T08:04:46;2.15;;;1.38;;
26391;SDS011;14572;43.120;1.178;2023-12-29T08:07:15;3.72;;;1.25;;
26391;SDS011;14572;43.120;1.178;2023-12-29T08:09:42;2.13;;;1.40;;
26391;SDS011;14572;43.120;1.178;2023-12-29T08:12:09;6.50;;;2.53;;
26391;SDS011;14572;43.120;1.178;2023-12-29T08:14:36;23.55;;;8.88;;
26391;SDS011;14572;43.120;1.178;2023-12-29T08:17:02;30.13;;;10.60;;
26391;SDS011;14572;43.120;1.178;2023-12-29T08:19:29;26.13;;;8.98;;
26391;SDS011;14572;43.120;1.178;2023-12-29T08:21:56;23.27;;;9.02;;
26391;SDS011;14572;43.120;1.178;2023-12-29T08:24:25;14.60;;;6.05;;
26391;SDS011;14572;43.120;1.178;2023-12-29T08:26:52;18.50;;;6.55;;
26391;SDS011;14572;43.120;1.178;2023-12-29T08:29:19;24.38;;;9.10;;
26391;SDS011;14572;43.120;1.178;2023-12-29T08:31:46;23.85;;;8.35;;
26391;SDS011;14572;43.120;1.178;2023-12-29T08:34:13;20.95;;;7.38;;
26391;SDS011;14572;43.120;1.178;2023-12-29T08:36:40;12.40;;;5.43;;
26391;SDS011;14572;43.120;1.178;2023-12-29T08:39:07;22.15;;;7.13;;
26391;SDS011;14572;43.120;1.178;2023-12-29T08:41:38;6.53;;;2.70;;
26391;SDS011;14572;43.120;1.178;2023-12-29T08:44:05;6.65;;;3.28;;
26391;SDS011;14572;43.120;1.178;2023-12-29T08:46:32;3.45;;;2.33;;
26391;SDS011;14572;43.120;1.178;2023-12-29T08:48:59;7.22;;;3.63;;
26391;SDS011;14572;43.120;1.178;2023-12-29T08:51:27;6.38;;;3.72;;
26391;SDS011;14572;43.120;1.178;2023-12-29T08:53:54;4.18;;;2.20;;
26391;SDS011;14572;43.120;1.178;2023-12-29T08:56:21;8.93;;;1.92;;
26391;SDS011;14572;43.120;1.178;2023-12-29T08:58:49;3.10;;;2.05;;
26391;SDS011;14572;43.120;1.178;2023-12-29T09:01:17;3.05;;;1.85;;
26391;SDS011;14572;43.120;1.178;2023-12-29T09:03:44;6.60;;;3.15;;
26391;SDS011;14572;43.120;1.178;2023-12-29T09:06:11;3.40;;;1.63;;
26391;SDS011;14572;43.120;1.178;2023-12-29T09:08:39;2.70;;;1.45;;
26391;SDS011;14572;43.120;1.178;2023-12-29T09:11:06;3.38;;;1.73;;
26391;SDS011;14572;43.120;1.178;2023-12-29T09:13:33;2.60;;;1.35;;
26391;SDS011;14572;43.120;1.178;2023-12-29T09:16:02;4.07;;;1.67;;
26391;SDS011;14572;43.120;1.178;2023-12-29T09:18:29;2.03;;;1.60;;
26391;SDS011;14572;43.120;1.178;2023-12-29T09:20:56;2.53;;;1.58;;
26391;SDS011;14572;43.120;1.178;2023-12-29T09:23:23;2.00;;;1.42;;
26391;SDS011;14572;43.120;1.178;2023-12-29T09:25:50;2.50;;;1.50;;
26391;SDS011;14572;43.120;1.178;2023-12-29T09:28:17;3.65;;;1.60;;
26391;SDS011;14572;43.120;1.178;2023-12-29T09:30:44;3.75;;;1.95;;
26391;SDS011;14572;43.120;1.178;2023-12-29T09:33:12;5.85;;;2.90;;
26391;SDS011;14572;43.120;1.178;2023-12-29T09:35:39;5.22;;;3.30;;
26391;SDS011;14572;43.120;1.178;2023-12-29T09:38:06;4.28;;;2.90;;
26391;SDS011;14572;43.120;1.178;2023-12-29T09:40:35;5.40;;;3.22;;
26391;SDS011;14572;43.120;1.178;2023-12-29T09:43:02;5.45;;;3.45;;
26391;SDS011;14572;43.120;1.178;2023-12-29T09:45:30;10.88;;;3.58;;
26391;SDS011;14572;43.120;1.178;2023-12-29T09:47:58;5.43;;;3.40;;
26391;SDS011;14572;43.120;1.178;2023-12-29T09:50:29;4.28;;;3.10;;
26391;SDS011;14572;43.120;1.178;2023-12-29T09:52:57;6.47;;;3.20;;
26391;SDS011;14572;43.120;1.178;2023-12-29T09:55:24;6.75;;;3.22;;
26391;SDS011;14572;43.120;1.178;2023-12-29T09:57:52;7.55;;;3.03;;
26391;SDS011;14572;43.120;1.178;2023-12-29T10:00:19;10.50;;;3.03;;
26391;SDS011;14572;43.120;1.178;2023-12-29T10:02:47;7.65;;;3.95;;
26391;SDS011;14572;43.120;1.178;2023-12-29T10:05:18;6.28;;;2.95;;
26391;SDS011;14572;43.120;1.178;2023-12-29T10:07:48;3.90;;;2.08;;
26391;SDS011;14572;43.120;1.178;2023-12-29T10:10:16;3.97;;;1.95;;
26391;SDS011;14572;43.120;1.178;2023-12-29T10:12:44;2.58;;;1.40;;
26391;SDS011;14572;43.120;1.178;2023-12-29T10:15:12;3.72;;;1.45;;
26391;SDS011;14572;43.120;1.178;2023-12-29T10:17:48;2.80;;;1.85;;
26391;SDS011;14572;43.120;1.178;2023-12-29T10:20:25;3.53;;;1.65;;
26391;SDS011;14572;43.120;1.178;2023-12-29T10:23:05;3.15;;;1.67;;
26391;SDS011;14572;43.120;1.178;2023-12-29T10:25:34;2.70;;;1.40;;
26391;SDS011;14572;43.120;1.178;2023-12-29T10:28:02;2.60;;;1.70;;
26391;SDS011;14572;43.120;1.178;2023-12-29T10:30:29;2.30;;;1.35;;
26391;SDS011;14572;43.120;1.178;2023-12-29T10:32:56;2.30;;;1.48;;
26391;SDS011;14572;43.120;1.178;2023-12-29T10:35:25;3.53;;;2.00;;
26391;SDS011;14572;43.120;1.178;2023-12-29T10:37:52;2.88;;;1.73;;
26391;SDS011;14572;43.120;1.178;2023-12-29T10:40:21;2.72;;;1.67;;
26391;SDS011;14572;43.120;1.178;2023-12-29T10:42:52;3.92;;;1.65;;
26391;SDS011;14572;43.120;1.178;2023-12-29T10:45:19;11.50;;;8.10;;
26391;SDS011;14572;43.120;1.178;2023-12-29T10:47:47;3.90;;;2.60;;
26391;SDS011;14572;43.120;1.178;2023-12-29T10:50:14;4.18;;;2.17;;
26391;SDS011;14572;43.120;1.178;2023-12-29T10:52:41;2.63;;;1.63;;
26391;SDS011;14572;43.120;1.178;2023-12-29T10:55:09;3.78;;;2.38;;
26391;SDS011;14572;43.120;1.178;2023-12-29T10:57:39;3.60;;;2.13;;
26391;SDS011;14572;43.120;1.178;2023-12-29T11:00:07;3.47;;;2.20;;
26391;SDS011;14572;43.120;1.178;2023-12-29T11:02:37;2.40;;;1.58;;
26391;SDS011;14572;43.120;1.178;2023-12-29T11:05:05;2.20;;;1.27;;
26391;SDS011;14572;43.120;1.178;2023-12-29T11:07:36;3.25;;;1.40;;
26391;SDS011;14572;43.120;1.178;2023-12-29T11:10:04;2.60;;;1.33;;
26391;SDS011;14572;43.120;1.178;2023-12-29T11:12:33;2.80;;;1.30;;
26391;SDS011;14572;43.120;1.178;2023-12-29T11:15:03;3.08;;;1.48;;
26391;SDS011;14572;43.120;1.178;2023-12-29T11:17:32;2.75;;;1.50;;
26391;SDS011;14572;43.120;1.178;2023-12-29T11:19:59;2.35;;;1.35;;
26391;SDS011;14572;43.120;1.178;2023-12-29T11:22:28;3.35;;;1.85;;
26391;SDS011;14572;43.120;1.178;2023-12-29T11:24:56;5.82;;;3.53;;
26391;SDS011;14572;43.120;1.178;2023-12-29T11:27:29;8.57;;;4.28;;
26391;SDS011;14572;43.120;1.178;2023-12-29T11:29:57;8.05;;;4.00;;
26391;SDS011;14572;43.120;1.178;2023-12-29T11:32:30;12.73;;;7.90;;
26391;SDS011;14572;43.120;1.178;2023-12-29T11:35:03;8.57;;;4.82;;
26391;SDS011;14572;43.120;1.178;2023-12-29T11:37:41;9.25;;;5.68;;
26391;SDS011;14572;43.120;1.178;2023-12-29T11:40:19;9.48;;;5.72;;
26391;SDS011;14572;43.120;1.178;2023-12-29T11:42:49;7.38;;;4.80;;
26391;SDS011;14572;43.120;1.178;2023-12-29T11:45:24;5.00;;;3.63;;
26391;SDS011;14572;43.120;1.178;2023-12-29T11:47:53;3.08;;;2.08;;
26391;SDS011;14572;43.120;1.178;2023-12-29T11:50:27;4.35;;;2.30;;
26391;SDS011;14572;43.120;1.178;2023-12-29T11:52:55;3.83;;;1.98;;
26391;SDS011;14572;43.120;1.178;2023-12-29T11:55:27;9.95;;;5.80;;
26391;SDS011;14572;43.120;1.178;2023-12-29T11:57:55;9.52;;;5.63;;
26391;SDS011;14572;43.120;1.178;2023-12-29T12:03:14;4.47;;;2.63;;
26391;SDS011;14572;43.120;1.178;2023-12-29T12:05:45;4.22;;;2.58;;
26391;SDS011;14572;43.120;1.178;2023-12-29T12:10:55;6.43;;;4.25;;
26391;SDS011;14572;43.120;1.178;2023-12-29T12:16:08;4.25;;;2.80;;
26391;SDS011;14572;43.120;1.178;2023-12-29T12:18:39;7.90;;;3.45;;
26391;SDS011;14572;43.120;1.178;2023-12-29T12:21:06;8.63;;;5.10;;
26391;SDS011;14572;43.120;1.178;2023-12-29T12:23:34;9.60;;;5.03;;
26391;SDS011;14572;43.120;1.178;2023-12-29T12:26:02;7.35;;;4.03;;
26391;SDS011;14572;43.120;1.178;2023-12-29T12:28:30;5.20;;;3.05;;
26391;SDS011;14572;43.120;1.178;2023-12-29T12:31:04;4.72;;;2.83;;
26391;SDS011;14572;43.120;1.178;2023-12-29T12:33:32;4.82;;;2.63;;
26391;SDS011;14572;43.120;1.178;2023-12-29T12:36:01;2.53;;;1.20;;
26391;SDS011;14572;43.120;1.178;2023-12-29T12:38:28;2.33;;;1.45;;
26391;SDS011;14572;43.120;1.178;2023-12-29T12:40:57;9.82;;;5.97;;
26391;SDS011;14572;43.120;1.178;2023-12-29T12:43:25;4.85;;;2.55;;
26391;SDS011;14572;43.120;1.178;2023-12-29T12:45:53;3.15;;;2.28;;
26391;SDS011;14572;43.120;1.178;2023-12-29T12:48:22;1.60;;;0.90;;
26391;SDS011;14572;43.120;1.178;2023-12-29T12:50:50;2.42;;;0.75;;
26391;SDS011;14572;43.120;1.178;2023-12-29T12:53:20;1.00;;;0.80;;
26391;SDS011;14572;43.120;1.178;2023-12-29T12:55:48;1.48;;;0.60;;
26391;SDS011;14572;43.120;1.178;2023-12-29T12:58:16;1.15;;;0.70;;
26391;SDS011;14572;43.120;1.178;2023-12-29T13:00:45;2.72;;;0.85;;
26391;SDS011;14572;43.120;1.178;2023-12-29T13:03:12;2.92;;;1.30;;
26391;SDS011;14572;43.120;1.178;2023-12-29T13:05:40;1.90;;;0.80;;
26391;SDS011;14572;43.120;1.178;2023-12-29T13:08:07;2.28;;;1.00;;
26391;SDS011;14572;43.120;1.178;2023-12-29T13:10:41;1.83;;;0.88;;
26391;SDS011;14572;43.120;1.178;2023-12-29T13:13:08;3.42;;;1.42;;
26391;SDS011;14572;43.120;1.178;2023-12-29T13:15:41;4.78;;;1.60;;
26391;SDS011;14572;43.120;1.178;2023-12-29T13:18:12;2.58;;;1.15;;
26391;SDS011;14572;43.120;1.178;2023-12-29T13:20:45;2.42;;;1.20;;
26391;SDS011;14572;43.120;1.178;2023-12-29T13:23:13;3.65;;;1.38;;
26391;SDS011;14572;43.120;1.178;2023-12-29T13:25:41;3.25;;;1.45;;
26391;SDS011;14572;43.120;1.178;2023-12-29T13:28:09;4.40;;;1.77;;
26391;SDS011;14572;43.120;1.178;2023-12-29T13:30:37;2.20;;;0.95;;
26391;SDS011;14572;43.120;1.178;2023-12-29T13:33:06;1.73;;;1.10;;
26391;SDS011;14572;43.120;1.178;2023-12-29T13:35:36;3.45;;;1.00;;
26391;SDS011;14572;43.120;1.178;2023-12-29T13:38:06;1.92;;;1.02;;
26391;SDS011;14572;43.120;1.178;2023-12-29T13:40:37;3.25;;;1.70;;
26391;SDS011;14572;43.120;1.178;2023-12-29T13:43:08;2.67;;;1.50;;
26391;SDS011;14572;43.120;1.178;2023-12-29T13:45:36;2.97;;;1.13;;
26391;SDS011;14572;43.120;1.178;2023-12-29T13:48:03;2.30;;;1.35;;
26391;SDS011;14572;43.120;1.178;2023-12-29T13:50:32;2.30;;;1.10;;
26391;SDS011;14572;43.120;1.178;2023-12-29T13:52:59;2.45;;;1.30;;
26391;SDS011;14572;43.120;1.178;2023-12-29T13:55:26;2.15;;;1.35;;
26391;SDS011;14572;43.120;1.178;2023-12-29T13:57:54;2.10;;;1.30;;
26391;SDS011;14572;43.120;1.178;2023-12-29T14:00:22;1.98;;;1.23;;
26391;SDS011;14572;43.120;1.178;2023-12-29T14:02:57;4.25;;;1.40;;
26391;SDS011;14572;43.120;1.178;2023-12-29T14:05:27;2.22;;;1.02;;
26391;SDS011;14572;43.120;1.178;2023-12-29T14:07:55;2.58;;;1.20;;
26391;SDS011;14572;43.120;1.178;2023-12-29T14:10:28;2.47;;;1.48;;
26391;SDS011;14572;43.120;1.178;2023-12-29T14:13:04;2.55;;;1.10;;
26391;SDS011;14572;43.120;1.178;2023-12-29T14:15:34;1.67;;;1.00;;
26391;SDS011;14572;43.120;1.178;2023-12-29T14:18:03;1.73;;;1.10;;
26391;SDS011;14572;43.120;1.178;2023-12-29T14:20:34;2.90;;;1.13;;
26391;SDS011;14572;43.120;1.178;2023-12-29T14:23:01;3.47;;;1.70;;
26391;SDS011;14572;43.120;1.178;2023-12-29T14:25:30;2.33;;;1.52;;
26391;SDS011;14572;43.120;1.178;2023-12-29T14:27:59;2.50;;;1.33;;
26391;SDS011;14572;43.120;1.178;2023-12-29T14:30:28;2.60;;;1.48;;
26391;SDS011;14572;43.120;1.178;2023-12-29T14:32:56;2.53;;;1.17;;
26391;SDS011;14572;43.120;1.178;2023-12-29T14:35:24;2.17;;;1.10;;
26391;SDS011;14572;43.120;1.178;2023-12-29T14:37:51;1.98;;;1.40;;
26391;SDS011;14572;43.120;1.178;2023-12-29T14:40:18;2.30;;;1.52;;
26391;SDS011;14572;43.120;1.178;2023-12-29T14:42:45;3.72;;;1.60;;
26391;SDS011;14572;43.120;1.178;2023-12-29T14:45:12;3.03;;;1.55;;
26391;SDS011;14572;43.120;1.178;2023-12-29T14:47:40;2.67;;;1.83;;
26391;SDS011;14572;43.120;1.178;2023-12-29T14:50:08;3.92;;;2.15;;
26391;SDS011;14572;43.120;1.178;2023-12-29T14:52:35;3.55;;;1.92;;
26391;SDS011;14572;43.120;1.178;2023-12-29T14:55:02;3.65;;;1.90;;
26391;SDS011;14572;43.120;1.178;2023-12-29T14:57:30;3.85;;;2.22;;
26391;SDS011;14572;43.120;1.178;2023-12-29T14:59:57;4.47;;;2.30;;
26391;SDS011;14572;43.120;1.178;2023-12-29T15:02:24;4.15;;;2.05;;